Time,TemperatureF,DewpointF,PressureIn,WindDirection,WindDirectionDegrees,WindSpeedMPH,WindSpeedGustMPH,Humidity,HourlyPrecipIn,Conditions,Clouds,dailyrainin,SoftwareType,DateUTC
2014-07-10 00:00:00,71.8,64.0,30.00,NW,315,1.0,2.0,76,0.00,,,0.01,weatherlink.com 1.10,2014-07-10 04:00:00,
2014-07-10 00:15:00,71.6,62.0,30.00,North,360,1.0,1.0,72,0.00,,,0.00,weatherlink.com 1.10,2014-07-10 04:15:00,
2014-07-10 00:30:00,71.6,63.0,30.00,NW,315,0.0,1.0,73,0.00,,,0.00,weatherlink.com 1.10,2014-07-10 04:30:00,
2014-07-10 00:45:00,71.4,62.0,30.00,NW,312,2.0,3.0,71,0.00,,,0.00,weatherlink.com 1.10,2014-07-10 04:45:00,
2014-07-10 01:00:00,71.5,62.0,30.01,West,277,0.0,2.0,72,0.00,,,0.00,weatherlink.com 1.10,2014-07-10 05:00:00,
2014-07-10 01:15:00,70.1,63.0,30.01,West,274,0.0,0.0,78,0.00,,,0.00,weatherlink.com 1.10,2014-07-10 05:15:00,
2014-07-10 01:30:00,69.0,63.0,30.01,West,274,0.0,0.0,81,0.00,,,0.00,weatherlink.com 1.10,2014-07-10 05:30:00,
2014-07-10 01:45:00,68.3,63.0,30.01,West,274,0.0,0.0,82,0.00,,,0.00,weatherlink.com 1.10,2014-07-10 05:45:00,
2014-07-10 02:00:00,67.7,62.0,30.01,West,274,0.0,0.0,83,0.00,,,0.00,weatherlink.com 1.10,2014-07-10 06:00:00,
2014-07-10 02:15:00,67.0,62.0,30.01,West,274,0.0,0.0,83,0.00,,,0.00,weatherlink.com 1.10,2014-07-10 06:15:00,
2014-07-10 02:30:00,66.3,61.0,30.01,West,276,0.0,0.0,84,0.00,,,0.00,weatherlink.com 1.10,2014-07-10 06:30:00,
2014-07-10 02:45:00,65.9,61.0,30.02,West,276,0.0,0.0,84,0.00,,,0.00,weatherlink.com 1.10,2014-07-10 06:45:00,
2014-07-10 03:00:00,65.3,60.0,30.02,West,274,0.0,0.0,84,0.00,,,0.00,weatherlink.com 1.10,2014-07-10 07:00:00,
2014-07-10 03:15:00,65.0,60.0,30.02,WNW,287,0.0,1.0,84,0.00,,,0.00,weatherlink.com 1.10,2014-07-10 07:15:00,
2014-07-10 03:30:00,66.6,60.0,30.02,NNW,333,1.0,3.0,80,0.00,,,0.00,weatherlink.com 1.10,2014-07-10 07:30:00,
2014-07-10 03:45:00,67.1,61.0,30.02,WNW,294,0.0,0.0,80,0.00,,,0.00,weatherlink.com 1.10,2014-07-10 07:45:00,
2014-07-10 04:00:00,67.0,60.0,30.02,WNW,291,0.0,3.0,79,0.00,,,0.00,weatherlink.com 1.10,2014-07-10 08:00:00,
2014-07-10 04:15:00,66.9,60.0,30.03,SE,129,0.0,0.0,79,0.00,,,0.00,weatherlink.com 1.10,2014-07-10 08:15:00,
2014-07-10 04:30:00,65.9,60.0,30.03,SE,130,0.0,0.0,82,0.00,,,0.00,weatherlink.com 1.10,2014-07-10 08:30:00,
2014-07-10 04:45:00,64.8,60.0,30.02,SE,130,0.0,0.0,84,0.00,,,0.00,weatherlink.com 1.10,2014-07-10 08:45:00,
2014-07-10 05:00:00,64.0,60.0,30.03,SE,137,0.0,0.0,86,0.00,,,0.00,weatherlink.com 1.10,2014-07-10 09:00:00,
2014-07-10 05:15:00,63.8,60.0,30.03,NW,323,0.0,0.0,88,0.00,,,0.00,weatherlink.com 1.10,2014-07-10 09:15:00,
2014-07-10 05:30:00,64.5,60.0,30.03,North,355,0.0,1.0,86,0.00,,,0.00,weatherlink.com 1.10,2014-07-10 09:30:00,
2014-07-10 05:45:00,64.5,60.0,30.04,ESE,102,0.0,2.0,86,0.00,,,0.00,weatherlink.com 1.10,2014-07-10 09:45:00,
2014-07-10 06:00:00,64.9,61.0,30.04,NW,312,0.0,4.0,86,0.00,,,0.00,weatherlink.com 1.10,2014-07-10 10:00:00,
2014-07-10 06:15:00,65.1,61.0,30.05,NW,318,0.0,1.0,86,0.00,,,0.00,weatherlink.com 1.10,2014-07-10 10:15:00,
2014-07-10 06:30:00,65.2,61.0,30.05,ENE,78,0.0,3.0,86,0.00,,,0.00,weatherlink.com 1.10,2014-07-10 10:30:00,
2014-07-10 06:45:00,65.3,61.0,30.05,NW,318,0.0,4.0,86,0.00,,,0.00,weatherlink.com 1.10,2014-07-10 10:45:00,
2014-07-10 07:00:00,65.5,61.0,30.05,NNW,340,0.0,2.0,86,0.00,,,0.00,weatherlink.com 1.10,2014-07-10 11:00:00,
2014-07-10 07:15:00,65.8,62.0,30.06,WNW,298,0.0,0.0,86,0.00,,,0.00,weatherlink.com 1.10,2014-07-10 11:15:00,
2014-07-10 07:31:00,65.9,61.0,30.06,NNW,328,1.0,3.0,85,0.00,,,0.00,weatherlink.com 1.10,2014-07-10 11:31:00,
2014-07-10 07:46:00,66.3,62.0,30.06,NNW,338,0.0,1.0,85,0.00,,,0.00,weatherlink.com 1.10,2014-07-10 11:46:00,
2014-07-10 08:01:00,68.4,63.0,30.07,NNW,339,0.0,0.0,83,0.00,,,0.00,weatherlink.com 1.10,2014-07-10 12:01:00,
2014-07-10 08:16:00,70.5,63.0,30.07,NNE,25,0.0,1.0,77,0.00,,,0.00,weatherlink.com 1.10,2014-07-10 12:16:00,
2014-07-10 08:31:00,71.9,63.0,30.07,NNW,335,0.0,3.0,74,0.00,,,0.00,weatherlink.com 1.10,2014-07-10 12:31:00,
2014-07-10 08:46:00,72.2,64.0,30.07,NNE,22,0.0,1.0,74,0.00,,,0.00,weatherlink.com 1.10,2014-07-10 12:46:00,